createdAt,value
2022-10-11T00:02:31.920Z,57.49
2022-10-11T00:05:04.012Z,57.54
2022-10-11T00:07:31.441Z,57.74
2022-10-11T00:09:59.083Z,57.76
2022-10-11T00:12:30.881Z,58.05
2022-10-11T00:15:01.155Z,58.00
2022-10-11T00:17:28.839Z,57.66
2022-10-11T00:19:56.212Z,57.91
2022-10-11T00:22:26.467Z,57.85
2022-10-11T00:24:53.809Z,58.04
2022-10-11T00:27:23.719Z,58.15
2022-10-11T00:29:57.101Z,58.20
2022-10-11T00:32:32.770Z,58.57
2022-10-11T00:35:05.391Z,58.64
2022-10-11T00:37:36.827Z,58.46
2022-10-11T00:40:10.690Z,58.65
2022-10-11T00:42:42.531Z,58.28
2022-10-11T00:45:28.324Z,58.85
2022-10-11T00:47:59.746Z,58.75
2022-10-11T00:50:38.058Z,58.51
2022-10-11T00:53:11.516Z,58.79
2022-10-11T00:56:00.389Z,58.92
2022-10-11T00:58:33.741Z,58.88
2022-10-11T01:01:01.379Z,58.71
2022-10-11T01:03:30.666Z,59.00
2022-10-11T01:05:57.933Z,58.93
2022-10-11T01:08:25.813Z,58.99
2022-10-11T01:10:53.403Z,58.80
2022-10-11T01:13:50.515Z,58.67
2022-10-11T01:16:29.176Z,58.96
2022-10-11T01:19:34.556Z,59.37
2022-10-11T01:22:30.815Z,59.55
2022-10-11T01:25:04.140Z,59.19
2022-10-11T01:27:49.359Z,59.17
2022-10-11T01:30:29.219Z,58.96
2022-10-11T01:33:46.459Z,59.13
2022-10-11T01:36:45.336Z,59.03
2022-10-11T01:39:21.352Z,59.64
2022-10-11T01:41:55.892Z,59.46
2022-10-11T01:44:28.513Z,59.35
2022-10-11T01:46:58.527Z,59.46
2022-10-11T01:49:25.873Z,59.45
2022-10-11T01:52:00.055Z,59.47
2022-10-11T01:55:09.130Z,59.57
2022-10-11T01:58:19.335Z,60.07
2022-10-11T02:01:10.874Z,59.67
2022-10-11T02:04:06.243Z,59.79
2022-10-11T02:06:52.655Z,59.60
2022-10-11T02:09:36.228Z,60.07
2022-10-11T02:12:18.885Z,59.89
2022-10-11T02:14:54.642Z,59.89
2022-10-11T02:20:26.596Z,59.88
2022-10-11T02:23:17.808Z,60.68
2022-10-11T02:25:49.462Z,60.37
2022-10-11T02:28:25.817Z,60.63
2022-10-11T02:30:55.492Z,60.68
2022-10-11T02:33:46.973Z,60.30
2022-10-11T02:36:27.074Z,60.92
2022-10-11T02:38:59.995Z,60.39
2022-10-11T02:41:42.209Z,60.13
2022-10-11T02:44:20.995Z,59.89
2022-10-11T02:46:50.247Z,60.03
2022-10-11T02:49:26.130Z,60.13
2022-10-11T02:51:59.173Z,59.60
2022-10-11T02:54:36.457Z,59.85
2022-10-11T02:57:06.707Z,59.55
2022-10-11T02:59:39.361Z,59.57
2022-10-11T03:02:08.969Z,59.77
2022-10-11T03:04:39.274Z,59.73
2022-10-11T03:07:08.482Z,59.35
2022-10-11T03:09:38.217Z,59.36
2022-10-11T03:12:08.303Z,59.75
2022-10-11T03:14:42.824Z,60.03
2022-10-11T03:17:35.505Z,59.45
2022-10-11T03:20:08.705Z,59.36
2022-10-11T03:22:41.763Z,59.50
2022-10-11T03:25:12.898Z,59.46
2022-10-11T03:27:42.334Z,59.56
2022-10-11T03:30:17.876Z,59.45
2022-10-11T03:32:54.242Z,59.73
2022-10-11T03:35:29.577Z,59.90
2022-10-11T03:38:01.457Z,59.63
2022-10-11T03:40:31.638Z,59.67
2022-10-11T03:43:02.491Z,59.90
2022-10-11T03:45:29.946Z,59.52
2022-10-11T03:48:02.511Z,59.70
2022-10-11T03:50:33.239Z,59.55
2022-10-11T03:53:00.806Z,59.35
2022-10-11T03:55:30.302Z,59.33
2022-10-11T03:58:01.038Z,59.46
2022-10-11T04:00:31.406Z,59.73
2022-10-11T04:03:08.122Z,59.24
2022-10-11T04:05:38.123Z,59.11
2022-10-11T04:08:12.271Z,58.88
2022-10-11T04:10:48.309Z,58.86
2022-10-11T04:13:16.352Z,59.13
2022-10-11T04:15:43.505Z,59.14
2022-10-11T04:18:21.508Z,59.32
2022-10-11T04:20:51.836Z,59.22
2022-10-11T04:23:19.743Z,59.46
2022-10-11T04:25:57.169Z,59.51
2022-10-11T04:28:27.503Z,59.46
2022-10-11T04:31:00.091Z,59.42
2022-10-11T04:33:37.144Z,59.57
2022-10-11T04:36:07.354Z,59.64
2022-10-11T04:38:34.932Z,60.45
2022-10-11T04:41:13.663Z,60.02
2022-10-11T04:43:43.651Z,59.81
2022-10-11T04:46:11.763Z,59.85
2022-10-11T04:48:39.405Z,59.97
2022-10-11T04:51:11.280Z,59.97
2022-10-11T04:53:45.010Z,59.87
2022-10-11T04:56:30.154Z,60.29
2022-10-11T04:59:03.927Z,60.30
2022-10-11T05:01:31.890Z,60.02
2022-10-11T05:04:02.297Z,59.95
2022-10-11T05:06:31.847Z,60.19
2022-10-11T05:09:04.495Z,60.18
2022-10-11T05:11:34.147Z,60.33
2022-10-11T05:14:08.003Z,60.20
2022-10-11T05:16:46.139Z,59.99
2022-10-11T05:19:13.475Z,60.93
2022-10-11T05:21:43.281Z,60.58
2022-10-11T05:24:17.723Z,60.14
2022-10-11T05:26:50.376Z,60.53
2022-10-11T05:29:27.863Z,59.88
2022-10-11T05:32:05.383Z,60.25
2022-10-11T05:34:35.148Z,59.95
2022-10-11T05:37:06.724Z,60.38
2022-10-11T05:39:44.401Z,60.47
2022-10-11T05:42:22.207Z,60.87
2022-10-11T05:44:52.354Z,60.33
2022-10-11T05:47:21.317Z,60.18
2022-10-11T05:49:48.312Z,60.73
2022-10-11T05:52:20.130Z,60.11
2022-10-11T05:54:48.338Z,60.00
2022-10-11T05:57:15.856Z,60.18
2022-10-11T05:59:46.216Z,59.87
2022-10-11T06:02:16.811Z,60.36
2022-10-11T06:04:52.456Z,60.42
2022-10-11T06:07:20.068Z,60.23
2022-10-11T06:09:54.047Z,60.50
2022-10-11T06:12:24.455Z,59.84
2022-10-11T06:14:51.922Z,60.19
2022-10-11T06:17:24.131Z,60.01
2022-10-11T06:19:55.097Z,59.76
2022-10-11T06:22:25.198Z,59.72
2022-10-11T06:24:57.561Z,59.43
2022-10-11T06:27:27.057Z,59.42
2022-10-11T06:29:54.479Z,59.39
2022-10-11T06:32:28.036Z,59.26
2022-10-11T06:35:04.882Z,59.12
2022-10-11T06:37:32.220Z,59.29
2022-10-11T06:40:05.381Z,59.64
2022-10-11T06:42:43.564Z,59.30
2022-10-11T06:45:11.138Z,58.85
2022-10-11T06:47:38.728Z,58.69
2022-10-11T06:50:09.031Z,58.73
2022-10-11T06:52:40.440Z,58.42
2022-10-11T06:55:08.308Z,58.53
2022-10-11T06:57:39.596Z,58.64
2022-10-11T07:00:11.744Z,57.79
2022-10-11T07:02:40.160Z,58.07
2022-10-11T07:05:08.660Z,58.14
2022-10-11T07:07:36.289Z,58.14
2022-10-11T07:10:03.550Z,58.36
2022-10-11T07:12:30.978Z,58.26
2022-10-11T07:14:58.135Z,57.92
2022-10-11T07:17:28.320Z,57.70
2022-10-11T07:19:58.580Z,57.60
2022-10-11T07:22:30.537Z,57.56
2022-10-11T07:25:05.975Z,57.63
2022-10-11T07:27:38.171Z,57.42
2022-10-11T07:30:11.302Z,57.43
2022-10-11T07:32:42.893Z,56.98
2022-10-11T07:35:13.236Z,56.99
2022-10-11T07:37:44.492Z,56.58
2022-10-11T07:40:22.949Z,56.19
2022-10-11T07:42:50.433Z,56.32
2022-10-11T07:45:21.023Z,55.92
2022-10-11T07:47:58.810Z,55.57
2022-10-11T07:50:27.137Z,55.63
2022-10-11T07:52:54.751Z,55.59
2022-10-11T07:55:30.578Z,55.07
2022-10-11T07:57:58.648Z,54.53
2022-10-11T08:00:31.331Z,54.36
2022-10-11T08:02:59.096Z,54.17
2022-10-11T08:05:30.442Z,53.70
2022-10-11T08:07:58.721Z,53.82
2022-10-11T08:10:29.064Z,52.67
2022-10-11T08:13:05.825Z,52.46
2022-10-11T08:15:36.607Z,52.20
2022-10-11T08:18:06.809Z,52.72
2022-10-11T08:20:34.657Z,51.89
2022-10-11T08:23:02.218Z,51.70
2022-10-11T08:25:29.660Z,51.88
2022-10-11T08:27:57.126Z,51.82
2022-10-11T08:30:25.197Z,51.73
2022-10-11T08:32:55.384Z,51.55
2022-10-11T08:35:28.277Z,51.62
2022-10-11T08:37:56.073Z,51.37
2022-10-11T08:40:35.357Z,50.59
2022-10-11T08:43:22.823Z,50.47
2022-10-11T08:46:01.992Z,50.01
2022-10-11T08:48:48.866Z,50.18
2022-10-11T08:51:30.858Z,49.73
2022-10-11T08:54:21.607Z,49.95
2022-10-11T08:56:54.227Z,50.10
2022-10-11T09:00:00.455Z,50.21
2022-10-11T09:03:08.680Z,50.43
2022-10-11T09:05:56.897Z,49.92
2022-10-11T09:08:42.365Z,49.02
2022-10-11T09:11:16.627Z,49.96
2022-10-11T09:14:07.729Z,49.69
2022-10-11T09:17:19.404Z,49.26
2022-10-11T09:20:20.547Z,50.01
2022-10-11T09:23:09.372Z,50.06
2022-10-11T09:26:07.003Z,49.98
2022-10-11T09:28:58.704Z,49.98
2022-10-11T09:32:14.292Z,49.84
2022-10-11T09:34:45.549Z,50.26
2022-10-11T09:37:35.931Z,50.64
2022-10-11T09:40:57.595Z,50.33
2022-10-11T09:43:43.364Z,50.21
2022-10-11T09:46:26.444Z,49.49
2022-10-11T09:48:59.329Z,50.29
2022-10-11T09:51:34.196Z,49.92
2022-10-11T09:57:22.966Z,50.10
2022-10-11T10:00:34.553Z,50.92
2022-10-11T10:03:08.412Z,50.64
2022-10-11T10:05:48.872Z,50.05
2022-10-11T10:08:23.850Z,50.38
2022-10-11T10:10:59.986Z,50.06
2022-10-11T10:13:50.210Z,49.94
2022-10-11T10:16:27.216Z,50.30
2022-10-11T10:19:06.135Z,50.18
2022-10-11T10:21:47.812Z,51.00
2022-10-11T10:24:37.573Z,50.63
2022-10-11T10:27:30.557Z,50.81
2022-10-11T10:30:19.583Z,50.70
2022-10-11T10:33:17.777Z,50.10
2022-10-11T10:39:34.303Z,50.24
2022-10-11T10:42:26.290Z,49.68
2022-10-11T10:45:03.029Z,49.72
2022-10-11T10:48:02.437Z,49.90
2022-10-11T10:51:14.043Z,50.02
2022-10-11T10:54:11.014Z,50.07
2022-10-11T11:00:22.193Z,49.95
2022-10-11T11:03:13.573Z,49.61
2022-10-11T11:06:07.618Z,49.98
2022-10-11T11:12:49.080Z,49.25
2022-10-11T11:15:44.302Z,49.10
2022-10-11T11:18:26.087Z,48.98
2022-10-11T11:21:22.983Z,48.03
2022-10-11T11:24:20.243Z,47.16
2022-10-11T11:27:26.498Z,46.59
2022-10-11T11:30:20.307Z,47.05
2022-10-11T11:33:17.458Z,47.20
2022-10-11T11:36:08.297Z,46.93
2022-10-11T11:39:13.887Z,46.42
2022-10-11T11:42:13.813Z,46.76
2022-10-11T11:44:50.641Z,46.06
2022-10-11T11:47:55.184Z,46.43
2022-10-11T11:50:33.756Z,46.39
2022-10-11T11:53:18.690Z,46.01
2022-10-11T11:56:04.846Z,45.98
2022-10-11T11:59:06.751Z,46.27
2022-10-11T12:02:22.564Z,45.74
2022-10-11T12:04:58.966Z,45.62
2022-10-11T12:08:10.603Z,44.87
2022-10-11T12:10:50.087Z,45.09
2022-10-11T12:13:32.585Z,44.94
2022-10-11T12:16:09.984Z,45.05
2022-10-11T12:19:08.518Z,44.17
2022-10-11T12:21:42.434Z,44.09
2022-10-11T12:25:05.475Z,44.00
2022-10-11T12:27:53.582Z,45.17
2022-10-11T12:30:48.432Z,45.70
2022-10-11T12:33:46.759Z,46.09
2022-10-11T12:40:30.121Z,46.70
2022-10-11T12:43:30.320Z,46.72
2022-10-11T12:46:39.624Z,47.01
2022-10-11T12:49:34.210Z,46.65
2022-10-11T12:52:24.032Z,46.92
2022-10-11T12:55:21.669Z,46.71
2022-10-11T12:58:11.476Z,45.88
2022-10-11T13:01:28.291Z,46.36
2022-10-11T13:04:39.651Z,46.02
2022-10-11T13:07:26.150Z,45.73
2022-10-11T13:09:58.128Z,44.89
2022-10-11T13:12:40.012Z,44.78
2022-10-11T13:15:15.326Z,44.90
2022-10-11T13:17:44.653Z,45.55
2022-10-11T13:20:28.327Z,45.11
2022-10-11T13:23:04.884Z,45.69
2022-10-11T13:25:41.454Z,45.94
2022-10-11T13:28:13.309Z,45.50
2022-10-11T13:30:52.567Z,46.63
2022-10-11T13:33:38.108Z,45.86
2022-10-11T13:36:09.894Z,46.43
2022-10-11T13:38:38.323Z,46.46
2022-10-11T13:41:14.102Z,46.88
2022-10-11T13:43:41.792Z,47.92
2022-10-11T13:46:29.135Z,48.43
2022-10-11T13:49:06.988Z,48.33
2022-10-11T13:51:37.566Z,48.37
2022-10-11T13:54:13.631Z,48.39
2022-10-11T13:56:51.072Z,48.56
2022-10-11T13:59:23.231Z,49.14
2022-10-11T14:02:02.146Z,49.52
2022-10-11T14:04:41.111Z,49.73
2022-10-11T14:07:33.838Z,50.41
2022-10-11T14:10:18.684Z,50.30
2022-10-11T14:13:04.591Z,50.04
2022-10-11T14:15:41.040Z,50.42
2022-10-11T14:18:34.027Z,50.42
2022-10-11T14:21:27.793Z,50.85
2022-10-11T14:24:11.410Z,51.08
2022-10-11T14:26:43.206Z,50.65
2022-10-11T14:29:38.491Z,51.36
2022-10-11T14:32:24.822Z,51.57
2022-10-11T14:34:53.644Z,51.31
2022-10-11T14:37:29.364Z,51.24
2022-10-11T14:39:56.599Z,52.24
2022-10-11T14:42:23.777Z,52.41
2022-10-11T14:44:54.787Z,52.51
2022-10-11T14:47:25.911Z,53.19
2022-10-11T14:49:56.109Z,52.40
2022-10-11T14:52:23.455Z,53.38
2022-10-11T14:54:53.088Z,53.03
2022-10-11T14:57:24.073Z,52.43
2022-10-11T14:59:51.502Z,52.26
2022-10-11T15:02:18.822Z,52.62
2022-10-11T15:04:48.402Z,52.97
2022-10-11T15:07:15.541Z,52.06
2022-10-11T15:09:45.647Z,53.02
2022-10-11T15:12:12.885Z,53.11
2022-10-11T15:14:40.241Z,52.73
2022-10-11T15:17:10.269Z,52.60
2022-10-11T15:19:42.843Z,52.58
2022-10-11T15:22:10.292Z,52.59
2022-10-11T15:24:40.727Z,52.38
2022-10-11T15:27:11.046Z,52.99
2022-10-11T15:29:40.977Z,52.91
2022-10-11T15:32:10.774Z,53.00
2022-10-11T15:34:40.481Z,52.26
2022-10-11T15:37:17.033Z,53.41
2022-10-11T15:39:44.903Z,52.71
2022-10-11T15:42:12.503Z,53.44
2022-10-11T15:44:42.881Z,54.01
2022-10-11T15:47:14.629Z,53.69
2022-10-11T15:49:47.345Z,53.94
2022-10-11T15:52:14.517Z,53.94
2022-10-11T15:54:43.994Z,53.72
2022-10-11T15:57:13.908Z,53.52
2022-10-11T15:59:47.465Z,54.36
2022-10-11T16:02:15.213Z,53.70
2022-10-11T16:04:45.291Z,53.75
2022-10-11T16:07:13.554Z,53.03
2022-10-11T16:09:50.114Z,53.58
2022-10-11T16:12:22.751Z,54.01
2022-10-11T16:14:50.296Z,53.78
2022-10-11T16:17:17.504Z,53.72
2022-10-11T16:19:48.068Z,54.55
2022-10-11T16:22:16.118Z,53.45
2022-10-11T16:24:45.167Z,53.95
2022-10-11T16:27:16.529Z,53.72
2022-10-11T16:29:48.733Z,53.99
2022-10-11T16:32:19.377Z,54.00
2022-10-11T16:34:49.063Z,53.48
2022-10-11T16:37:19.355Z,53.58
2022-10-11T16:39:49.049Z,53.49
2022-10-11T16:42:16.601Z,53.63
2022-10-11T16:44:44.135Z,54.13
2022-10-11T16:47:11.705Z,54.29
2022-10-11T16:49:41.135Z,54.50
2022-10-11T16:52:11.074Z,54.81
2022-10-11T16:54:39.690Z,54.66
2022-10-11T16:57:20.047Z,54.58
2022-10-11T16:59:50.437Z,53.98
2022-10-11T17:02:29.937Z,54.74
2022-10-11T17:05:02.300Z,55.13
2022-10-11T17:07:34.580Z,55.58
2022-10-11T17:10:08.811Z,55.26
2022-10-11T17:12:50.328Z,56.15
2022-10-11T17:15:31.656Z,55.57
2022-10-11T17:18:03.290Z,55.43
2022-10-11T17:20:34.556Z,56.54
2022-10-11T17:23:03.945Z,56.35
2022-10-11T17:25:54.907Z,57.10
2022-10-11T17:28:24.308Z,56.64
2022-10-11T17:31:09.851Z,57.11
2022-10-11T17:33:38.908Z,56.93
2022-10-11T17:36:22.824Z,57.50
2022-10-11T17:39:03.316Z,56.93
2022-10-11T17:41:45.479Z,57.87
2022-10-11T17:44:30.327Z,57.91
2022-10-11T17:47:09.358Z,57.13
2022-10-11T17:50:14.659Z,57.82
2022-10-11T17:53:07.029Z,57.68
2022-10-11T17:55:49.288Z,57.15
2022-10-11T17:58:59.792Z,58.07
2022-10-11T18:01:41.351Z,57.96
2022-10-11T18:04:20.909Z,58.21
2022-10-11T18:07:08.451Z,58.44
2022-10-11T18:09:53.725Z,57.79
2022-10-11T18:12:34.137Z,58.57
2022-10-11T18:15:08.456Z,58.61
2022-10-11T18:17:44.209Z,58.86
2022-10-11T18:26:54.257Z,58.51
2022-10-11T18:29:29.880Z,57.67
2022-10-11T18:32:06.447Z,57.93
2022-10-11T18:34:50.525Z,57.42
2022-10-11T18:37:45.593Z,58.34
2022-10-11T18:40:32.353Z,57.80
2022-10-11T18:43:19.841Z,59.74
2022-10-11T18:46:03.368Z,58.03
2022-10-11T18:48:39.578Z,57.84
2022-10-11T18:51:31.753Z,58.06
2022-10-11T18:54:18.557Z,57.20
2022-10-11T18:57:17.329Z,56.46
2022-10-11T18:59:55.571Z,55.03
2022-10-11T19:02:31.828Z,54.70
2022-10-11T19:05:24.088Z,54.36
2022-10-11T19:08:13.156Z,54.44
2022-10-11T19:11:13.333Z,54.32
2022-10-11T19:14:02.623Z,54.05
2022-10-11T19:16:54.019Z,54.64
2022-10-11T19:19:45.169Z,54.14
2022-10-11T19:22:32.408Z,53.68
2022-10-11T19:25:31.435Z,53.58
2022-10-11T19:28:27.044Z,53.19
2022-10-11T19:31:31.252Z,53.24
2022-10-11T19:34:11.660Z,53.37
2022-10-11T19:36:56.661Z,52.77
2022-10-11T19:39:45.118Z,53.43
2022-10-11T19:42:34.824Z,53.13
2022-10-11T19:45:35.143Z,53.29
2022-10-11T19:48:36.621Z,53.57
2022-10-11T19:51:25.505Z,53.37
2022-10-11T19:54:08.224Z,53.59
2022-10-11T19:57:06.405Z,53.73
2022-10-11T19:59:51.380Z,53.86
2022-10-11T20:02:23.138Z,53.96
2022-10-11T20:05:01.381Z,54.17
2022-10-11T20:07:54.417Z,54.09
2022-10-11T20:10:34.983Z,54.34
2022-10-11T20:13:11.795Z,54.97
2022-10-11T20:16:21.857Z,54.50
2022-10-11T20:19:13.749Z,54.69
2022-10-11T20:21:48.116Z,54.51
2022-10-11T20:24:33.821Z,54.36
2022-10-11T20:30:54.463Z,54.54
2022-10-11T20:33:47.222Z,54.37
2022-10-11T20:36:33.246Z,54.23
2022-10-11T20:39:26.068Z,54.40
2022-10-11T20:42:14.688Z,54.52
2022-10-11T20:44:59.167Z,54.22
2022-10-11T20:47:43.149Z,54.05
2022-10-11T20:50:23.271Z,53.98
2022-10-11T20:53:02.049Z,54.44
2022-10-11T20:55:47.972Z,54.35
2022-10-11T20:58:31.732Z,54.43
2022-10-11T21:01:39.822Z,54.68
2022-10-11T21:04:18.902Z,54.19
2022-10-11T21:07:07.267Z,54.56
2022-10-11T21:09:49.982Z,54.38
2022-10-11T21:12:26.309Z,54.76
2022-10-11T21:14:57.619Z,54.57
2022-10-11T21:17:38.681Z,55.00
2022-10-11T21:20:48.374Z,54.68
2022-10-11T21:23:22.281Z,54.41
2022-10-11T21:26:10.471Z,54.55
2022-10-11T21:28:39.072Z,54.55
2022-10-11T21:31:32.740Z,54.84
2022-10-11T21:34:07.891Z,55.04
2022-10-11T21:36:35.476Z,54.81
2022-10-11T21:39:12.020Z,54.79
2022-10-11T21:41:42.684Z,55.17
2022-10-11T21:44:13.022Z,55.37
2022-10-11T21:47:06.610Z,55.18
2022-10-11T21:49:29.581Z,55.37
2022-10-11T21:52:02.528Z,55.72
2022-10-11T21:54:34.499Z,55.77
2022-10-11T21:57:13.083Z,55.76
2022-10-11T21:59:44.633Z,55.86
2022-10-11T22:02:14.892Z,55.87
2022-10-11T22:04:47.359Z,56.00
2022-10-11T22:07:14.716Z,55.64
2022-10-11T22:09:46.830Z,55.90
2022-10-11T22:12:16.552Z,55.51
2022-10-11T22:14:46.625Z,55.53
2022-10-11T22:17:19.903Z,55.59
2022-10-11T22:19:55.310Z,55.84
2022-10-11T22:22:28.102Z,56.03
2022-10-11T22:25:00.984Z,55.36
2022-10-11T22:27:31.880Z,56.00
2022-10-11T22:30:02.348Z,55.91
2022-10-11T22:32:29.598Z,55.93
2022-10-11T22:34:56.713Z,55.69
2022-10-11T22:37:24.048Z,56.04
2022-10-11T22:39:57.240Z,55.69
2022-10-11T22:42:29.108Z,55.76
2022-10-11T22:45:12.134Z,55.67
2022-10-11T22:47:41.844Z,56.82
2022-10-11T22:50:12.193Z,56.80
2022-10-11T22:52:42.145Z,57.02
2022-10-11T22:55:16.251Z,56.53
2022-10-11T22:57:50.252Z,57.25
2022-10-11T23:00:21.538Z,56.38
2022-10-11T23:02:52.622Z,56.94
2022-10-11T23:05:33.536Z,57.31
2022-10-11T23:08:03.957Z,57.37
2022-10-11T23:10:33.646Z,57.56
2022-10-11T23:13:03.436Z,57.18
2022-10-11T23:15:33.960Z,57.55
2022-10-11T23:18:01.484Z,57.34
2022-10-11T23:20:33.619Z,57.31
2022-10-11T23:23:04.248Z,57.87
2022-10-11T23:25:38.561Z,57.69
2022-10-11T23:28:11.113Z,57.34
2022-10-11T23:30:41.260Z,56.69
2022-10-11T23:33:18.154Z,56.74
2022-10-11T23:35:51.193Z,57.38
2022-10-11T23:38:21.050Z,57.00
2022-10-11T23:40:48.664Z,57.18
2022-10-11T23:43:18.098Z,56.75
2022-10-11T23:45:45.398Z,56.74
2022-10-11T23:48:12.715Z,57.02
2022-10-11T23:50:43.179Z,57.58
2022-10-11T23:53:13.343Z,56.97
2022-10-11T23:55:43.767Z,57.09
2022-10-11T23:58:16.634Z,56.94
